Time;durP1;ratioP1;P1;durP2;ratioP2;P2;SDS_P1;SDS_P2;PMS_P1;PMS_P2;Temp;Humidity;BMP_temperature;BMP_pressure;BME280_temperature;BME280_humidity;BME280_pressure;Samples;Min_cycle;Max_cycle;Signal;HPM_P1;HPM_P2
2023/03/26 00:00:39;;;;;;;1.40;0.90;;;;;;;;;;5036881;28;20208;-58
2023/03/26 00:03:05;;;;;;;1.42;0.90;;;;;;;;;;5040586;28;20172;-58
2023/03/26 00:05:31;;;;;;;2.30;1.00;;;;;;;;;;5043304;28;20171;-58
2023/03/26 00:07:57;;;;;;;2.10;0.85;;;;;;;;;;5044649;28;20551;-58
2023/03/26 00:10:24;;;;;;;1.98;0.80;;;;;;;;;;5047101;28;20565;-58
2023/03/26 00:12:50;;;;;;;1.38;0.80;;;;;;;;;;5039683;28;20179;-58
2023/03/26 00:15:16;;;;;;;1.20;0.73;;;;;;;;;;5036896;28;20211;-58
2023/03/26 00:17:45;;;;;;;0.55;0.55;;;;;;;;;;5048438;28;20274;-58
2023/03/26 00:20:11;;;;;;;2.45;0.68;;;;;;;;;;5048556;28;20272;-59
2023/03/26 00:22:37;;;;;;;1.98;0.80;;;;;;;;;;5045817;28;20180;-59
2023/03/26 00:25:04;;;;;;;1.17;0.90;;;;;;;;;;5033483;28;20613;-58
2023/03/26 00:27:32;;;;;;;1.65;0.80;;;;;;;;;;5036302;28;20194;-58
2023/03/26 00:29:59;;;;;;;2.67;0.95;;;;;;;;;;5040841;28;20575;-60
2023/03/26 00:32:26;;;;;;;1.13;0.90;;;;;;;;;;5052116;28;20548;-58
2023/03/26 00:34:53;;;;;;;1.42;1.08;;;;;;;;;;5048347;28;20190;-58
2023/03/26 00:37:19;;;;;;;1.38;0.70;;;;;;;;;;5043621;28;20215;-58
2023/03/26 00:39:47;;;;;;;1.50;0.82;;;;;;;;;;5034343;28;20198;-59
2023/03/26 00:42:14;;;;;;;1.70;0.80;;;;;;;;;;5047133;28;20557;-59
2023/03/26 00:44:40;;;;;;;1.05;0.88;;;;;;;;;;5041873;28;20432;-58
2023/03/26 00:47:06;;;;;;;1.58;1.10;;;;;;;;;;5032311;28;20199;-57
2023/03/26 00:49:32;;;;;;;0.73;0.70;;;;;;;;;;5044402;28;20196;-58
2023/03/26 00:51:58;;;;;;;2.40;0.82;;;;;;;;;;5051684;28;20230;-59
2023/03/26 00:54:24;;;;;;;2.00;0.90;;;;;;;;;;5044227;28;20261;-58
2023/03/26 00:56:54;;;;;;;2.63;1.02;;;;;;;;;;5037297;28;20186;-59
2023/03/26 00:59:21;;;;;;;2.13;0.70;;;;;;;;;;5048668;28;20190;-58
2023/03/26 01:01:47;;;;;;;2.20;0.80;;;;;;;;;;5038641;28;20619;-57
2023/03/26 01:04:22;;;;;;;1.20;0.70;;;;;;;;;;5040049;28;20254;-59
2023/03/26 01:06:49;;;;;;;0.98;0.80;;;;;;;;;;5041791;28;20662;-59
2023/03/26 01:09:17;;;;;;;3.15;1.13;;;;;;;;;;5038035;28;20168;-59
2023/03/26 01:11:43;;;;;;;2.15;0.80;;;;;;;;;;5053464;28;20171;-58
2023/03/26 01:14:11;;;;;;;2.92;0.70;;;;;;;;;;5036698;28;20222;-58
2023/03/26 01:16:48;;;;;;;1.13;0.80;;;;;;;;;;5040795;28;20171;-58
2023/03/26 01:19:25;;;;;;;2.08;0.70;;;;;;;;;;5034747;28;20269;-58
2023/03/26 01:21:51;;;;;;;2.58;0.80;;;;;;;;;;5032089;28;20193;-58
2023/03/26 01:24:16;;;;;;;2.95;0.90;;;;;;;;;;5045610;28;20258;-57
2023/03/26 01:26:51;;;;;;;2.22;1.00;;;;;;;;;;5042145;28;20176;-58
2023/03/26 01:29:20;;;;;;;1.63;0.90;;;;;;;;;;5041896;28;20217;-58
2023/03/26 01:31:51;;;;;;;2.90;0.70;;;;;;;;;;5046358;28;20551;-58
2023/03/26 01:34:29;;;;;;;1.42;0.90;;;;;;;;;;5026180;28;20214;-59
2023/03/26 01:37:12;;;;;;;2.10;0.77;;;;;;;;;;5034386;28;20214;-58
2023/03/26 01:39:47;;;;;;;2.35;0.80;;;;;;;;;;5034556;28;20470;-57
2023/03/26 01:42:21;;;;;;;1.48;0.70;;;;;;;;;;5030534;28;20202;-58
2023/03/26 01:44:54;;;;;;;2.58;0.77;;;;;;;;;;5028122;28;20274;-58
2023/03/26 01:47:21;;;;;;;1.52;0.80;;;;;;;;;;5042225;28;20581;-58
2023/03/26 01:49:47;;;;;;;1.58;1.00;;;;;;;;;;5036607;28;20342;-58
2023/03/26 01:52:15;;;;;;;0.68;0.60;;;;;;;;;;5050887;28;20549;-58
2023/03/26 01:54:42;;;;;;;1.38;0.60;;;;;;;;;;5038835;28;20470;-58
2023/03/26 01:57:17;;;;;;;0.70;0.60;;;;;;;;;;5032491;28;20191;-58
2023/03/26 02:00:10;;;;;;;3.85;0.60;;;;;;;;;;5035205;28;20202;-57
2023/03/26 02:02:44;;;;;;;1.67;0.75;;;;;;;;;;5035973;28;20176;-58
2023/03/26 02:05:20;;;;;;;2.08;0.80;;;;;;;;;;5043247;28;20228;-58
2023/03/26 02:08:10;;;;;;;0.95;0.65;;;;;;;;;;5040965;28;20725;-58
2023/03/26 02:10:39;;;;;;;2.90;0.85;;;;;;;;;;5038318;28;20266;-59
2023/03/26 02:13:05;;;;;;;4.05;0.98;;;;;;;;;;5036995;28;20446;-58
2023/03/26 02:15:31;;;;;;;4.45;0.75;;;;;;;;;;5036222;28;20187;-59
2023/03/26 02:17:58;;;;;;;1.38;0.85;;;;;;;;;;5049028;28;20186;-58
2023/03/26 02:20:28;;;;;;;1.23;0.73;;;;;;;;;;5044819;28;20285;-59
2023/03/26 02:22:55;;;;;;;1.55;0.90;;;;;;;;;;5043413;28;20174;-58
2023/03/26 02:25:22;;;;;;;2.88;1.02;;;;;;;;;;5041377;28;20226;-58
2023/03/26 02:27:48;;;;;;;3.10;1.15;;;;;;;;;;5035919;28;20196;-58
2023/03/26 02:30:16;;;;;;;2.08;0.75;;;;;;;;;;5043867;28;20190;-58
2023/03/26 02:32:42;;;;;;;1.55;1.00;;;;;;;;;;5037083;28;20179;-58
2023/03/26 02:35:08;;;;;;;2.22;1.00;;;;;;;;;;5027712;28;20180;-58
2023/03/26 02:37:34;;;;;;;2.63;1.13;;;;;;;;;;5044160;28;20187;-59
2023/03/26 02:40:01;;;;;;;2.25;0.73;;;;;;;;;;5043190;28;20276;-58
2023/03/26 02:42:27;;;;;;;3.28;1.20;;;;;;;;;;5053920;28;20198;-58
2023/03/26 02:44:53;;;;;;;2.67;0.90;;;;;;;;;;5043523;28;20219;-58
2023/03/26 02:47:19;;;;;;;1.90;1.17;;;;;;;;;;5036606;28;20268;-58
2023/03/26 02:49:45;;;;;;;1.80;0.90;;;;;;;;;;5039188;28;20200;-58
2023/03/26 02:52:11;;;;;;;3.58;1.20;;;;;;;;;;5041724;28;20187;-58
2023/03/26 02:54:37;;;;;;;1.58;1.00;;;;;;;;;;5044273;28;20183;-58
2023/03/26 02:57:03;;;;;;;3.58;1.27;;;;;;;;;;5041365;28;20190;-58
2023/03/26 02:59:29;;;;;;;2.72;1.20;;;;;;;;;;5033558;28;20176;-57
2023/03/26 03:01:55;;;;;;;2.97;1.00;;;;;;;;;;5042584;28;20184;-58
2023/03/26 03:04:20;;;;;;;3.78;1.30;;;;;;;;;;5035505;28;20187;-58
2023/03/26 03:06:51;;;;;;;2.88;1.20;;;;;;;;;;5051421;28;20192;-57
2023/03/26 03:09:17;;;;;;;3.00;1.00;;;;;;;;;;5049459;28;20278;-57
2023/03/26 03:11:43;;;;;;;2.22;0.98;;;;;;;;;;5054799;28;20159;-57
2023/03/26 03:14:09;;;;;;;3.30;0.98;;;;;;;;;;5033349;28;20187;-58
2023/03/26 03:16:35;;;;;;;3.03;1.00;;;;;;;;;;5042933;28;20203;-58
2023/03/26 03:19:01;;;;;;;5.22;1.20;;;;;;;;;;5049357;28;20505;-58
2023/03/26 03:21:28;;;;;;;4.00;1.17;;;;;;;;;;5034106;28;20205;-57
2023/03/26 03:23:54;;;;;;;3.10;1.00;;;;;;;;;;5049420;28;20215;-58
2023/03/26 03:26:21;;;;;;;6.80;1.38;;;;;;;;;;5045238;28;20171;-58
2023/03/26 03:28:48;;;;;;;2.53;1.20;;;;;;;;;;5042978;28;20203;-57
2023/03/26 03:31:15;;;;;;;3.10;1.27;;;;;;;;;;5025749;28;20203;-58
2023/03/26 03:33:41;;;;;;;2.53;0.98;;;;;;;;;;5035840;28;20214;-58
2023/03/26 03:36:09;;;;;;;3.30;1.13;;;;;;;;;;5036905;28;20244;-58
2023/03/26 03:38:36;;;;;;;3.33;0.90;;;;;;;;;;5035464;28;20186;-58
2023/03/26 03:41:02;;;;;;;2.65;0.82;;;;;;;;;;5037280;28;20567;-58
2023/03/26 03:43:27;;;;;;;2.05;1.08;;;;;;;;;;5027387;28;20564;-58
2023/03/26 03:45:53;;;;;;;3.95;1.17;;;;;;;;;;5032436;28;20192;-58
2023/03/26 03:48:19;;;;;;;3.92;1.00;;;;;;;;;;5041022;28;20472;-58
2023/03/26 03:50:45;;;;;;;2.75;1.20;;;;;;;;;;5043069;28;20180;-57
2023/03/26 03:53:14;;;;;;;2.72;1.15;;;;;;;;;;5042840;28;20190;-58
2023/03/26 03:55:40;;;;;;;2.78;1.20;;;;;;;;;;5046103;28;20179;-57
2023/03/26 03:58:08;;;;;;;4.15;1.40;;;;;;;;;;5050710;28;20191;-58
2023/03/26 04:00:37;;;;;;;3.70;1.45;;;;;;;;;;5038823;28;20200;-58
2023/03/26 04:03:05;;;;;;;3.22;0.82;;;;;;;;;;5033342;28;20175;-57
2023/03/26 04:05:31;;;;;;;3.88;1.40;;;;;;;;;;5035733;28;20164;-57
2023/03/26 04:07:58;;;;;;;2.22;1.00;;;;;;;;;;5036141;28;20194;-58
2023/03/26 04:10:24;;;;;;;5.55;1.13;;;;;;;;;;5041016;28;20175;-58
2023/03/26 04:12:50;;;;;;;5.43;1.15;;;;;;;;;;5037013;28;20508;-58
2023/03/26 04:15:16;;;;;;;3.45;1.20;;;;;;;;;;5035653;28;20183;-58
2023/03/26 04:17:42;;;;;;;2.40;1.10;;;;;;;;;;5040253;28;20184;-59
2023/03/26 04:20:13;;;;;;;4.45;1.10;;;;;;;;;;5037158;28;20207;-58
2023/03/26 04:22:39;;;;;;;3.58;1.15;;;;;;;;;;5052603;28;20186;-58
2023/03/26 04:25:06;;;;;;;3.30;1.27;;;;;;;;;;5046593;28;20176;-58
2023/03/26 04:27:35;;;;;;;3.38;1.13;;;;;;;;;;5046293;28;20179;-58
2023/03/26 04:30:01;;;;;;;3.42;1.17;;;;;;;;;;5037569;28;20182;-57
2023/03/26 04:32:28;;;;;;;3.17;1.00;;;;;;;;;;5040078;28;20183;-57
2023/03/26 04:34:59;;;;;;;2.03;1.17;;;;;;;;;;5025269;28;20199;-58
2023/03/26 04:37:26;;;;;;;3.40;1.08;;;;;;;;;;5022729;28;20188;-57
2023/03/26 04:39:53;;;;;;;3.53;0.95;;;;;;;;;;5044855;28;20211;-58
2023/03/26 04:42:20;;;;;;;5.85;1.45;;;;;;;;;;5046086;28;20550;-58
2023/03/26 04:44:49;;;;;;;2.67;1.00;;;;;;;;;;5041620;28;20183;-58
2023/03/26 04:47:15;;;;;;;2.05;1.10;;;;;;;;;;5054106;28;20567;-58
2023/03/26 04:49:41;;;;;;;3.92;1.23;;;;;;;;;;5037125;28;20221;-58
2023/03/26 04:52:09;;;;;;;4.13;1.38;;;;;;;;;;5035166;28;20184;-58
2023/03/26 04:54:35;;;;;;;3.85;1.00;;;;;;;;;;5039474;28;20213;-58
2023/03/26 04:57:03;;;;;;;2.80;0.95;;;;;;;;;;5050716;28;20194;-58
2023/03/26 04:59:33;;;;;;;5.10;1.52;;;;;;;;;;5040855;28;20276;-59
2023/03/26 05:01:59;;;;;;;3.58;1.20;;;;;;;;;;5036043;28;20176;-58
2023/03/26 05:04:25;;;;;;;5.93;1.50;;;;;;;;;;5045114;28;20255;-58
2023/03/26 05:06:52;;;;;;;2.78;1.38;;;;;;;;;;5036853;28;20271;-58
2023/03/26 05:09:19;;;;;;;4.35;1.08;;;;;;;;;;5032476;28;20222;-59
2023/03/26 05:11:45;;;;;;;2.83;0.95;;;;;;;;;;5043650;28;20172;-58
2023/03/26 05:14:11;;;;;;;4.20;1.35;;;;;;;;;;5040155;28;20457;-58
2023/03/26 05:16:38;;;;;;;3.22;1.02;;;;;;;;;;5046210;28;20250;-58
2023/03/26 05:19:04;;;;;;;3.50;1.20;;;;;;;;;;5042174;28;20303;-60
2023/03/26 05:21:30;;;;;;;3.83;1.30;;;;;;;;;;5041339;28;20293;-59
2023/03/26 05:23:56;;;;;;;6.47;1.83;;;;;;;;;;5038437;28;20559;-59
2023/03/26 05:26:21;;;;;;;3.55;1.20;;;;;;;;;;5044160;28;20174;-59
2023/03/26 05:28:47;;;;;;;5.13;1.30;;;;;;;;;;5040720;28;20194;-59
2023/03/26 05:31:15;;;;;;;4.63;1.20;;;;;;;;;;5040311;28;20179;-59
2023/03/26 05:33:41;;;;;;;3.58;1.35;;;;;;;;;;5051392;28;20202;-60
2023/03/26 05:36:08;;;;;;;3.80;1.20;;;;;;;;;;5033817;28;20250;-59
2023/03/26 05:38:35;;;;;;;6.55;1.35;;;;;;;;;;5038727;28;20217;-60
2023/03/26 05:41:03;;;;;;;4.45;1.27;;;;;;;;;;5041942;28;20230;-59
2023/03/26 05:43:30;;;;;;;3.47;1.10;;;;;;;;;;5036293;28;20578;-61
2023/03/26 05:45:56;;;;;;;4.03;1.40;;;;;;;;;;5040158;28;20183;-59
2023/03/26 05:48:22;;;;;;;7.72;1.52;;;;;;;;;;5046829;28;20273;-59
2023/03/26 05:50:49;;;;;;;4.55;1.50;;;;;;;;;;5033941;28;20250;-58
2023/03/26 05:53:15;;;;;;;3.45;1.25;;;;;;;;;;5039952;28;20451;-59
2023/03/26 05:55:44;;;;;;;4.70;1.58;;;;;;;;;;5038098;28;20193;-58
2023/03/26 05:58:10;;;;;;;1.63;0.98;;;;;;;;;;5038520;28;20180;-58
2023/03/26 06:00:37;;;;;;;3.17;1.20;;;;;;;;;;5044276;28;20203;-58
2023/03/26 06:03:04;;;;;;;2.92;1.02;;;;;;;;;;5035330;28;22065;-58
2023/03/26 06:05:36;;;;;;;4.95;1.60;;;;;;;;;;5031292;28;20172;-58
2023/03/26 06:08:02;;;;;;;3.42;1.30;;;;;;;;;;5036967;28;20206;-58
2023/03/26 06:10:28;;;;;;;5.45;1.48;;;;;;;;;;5042587;28;20520;-58
2023/03/26 06:12:54;;;;;;;2.42;1.30;;;;;;;;;;5036651;28;20190;-58
2023/03/26 06:15:20;;;;;;;4.93;1.60;;;;;;;;;;5038128;28;20176;-58
2023/03/26 06:17:46;;;;;;;8.52;2.17;;;;;;;;;;5053957;28;20182;-49
2023/03/26 06:20:12;;;;;;;23.67;4.82;;;;;;;;;;5040259;28;20662;-59
2023/03/26 06:22:38;;;;;;;10.10;4.75;;;;;;;;;;5028001;28;20271;-50
2023/03/26 06:25:04;;;;;;;18.08;4.65;;;;;;;;;;5032833;28;20186;-50
2023/03/26 06:27:30;;;;;;;9.45;4.05;;;;;;;;;;5041314;28;20183;-50
2023/03/26 06:29:56;;;;;;;8.55;3.65;;;;;;;;;;5036332;28;20185;-53
2023/03/26 06:32:22;;;;;;;10.40;3.90;;;;;;;;;;5042398;28;20224;-50
2023/03/26 06:34:48;;;;;;;10.27;3.42;;;;;;;;;;5030682;28;20692;-50
2023/03/26 06:37:14;;;;;;;10.00;3.25;;;;;;;;;;5030655;28;20195;-51
2023/03/26 06:39:40;;;;;;;12.25;4.38;;;;;;;;;;5044689;28;20605;-50
2023/03/26 06:42:06;;;;;;;13.68;3.30;;;;;;;;;;5031333;28;20193;-51
2023/03/26 06:44:32;;;;;;;9.32;3.30;;;;;;;;;;5043112;28;20175;-50
2023/03/26 06:46:58;;;;;;;12.93;3.15;;;;;;;;;;5042869;28;20696;-50
2023/03/26 06:49:24;;;;;;;13.23;3.03;;;;;;;;;;5047350;28;20191;-50
2023/03/26 06:51:50;;;;;;;5.28;2.38;;;;;;;;;;5032992;28;20185;-50
2023/03/26 06:54:17;;;;;;;9.60;2.65;;;;;;;;;;5033141;28;20227;-51
2023/03/26 06:56:43;;;;;;;6.53;2.28;;;;;;;;;;5042956;28;20187;-50
2023/03/26 06:59:10;;;;;;;4.82;2.30;;;;;;;;;;5039735;28;20180;-50
2023/03/26 07:01:36;;;;;;;7.97;2.28;;;;;;;;;;5034046;28;20239;-50
2023/03/26 07:04:02;;;;;;;5.63;2.30;;;;;;;;;;5042962;28;20207;-51
2023/03/26 07:06:27;;;;;;;5.25;1.90;;;;;;;;;;5031779;28;20185;-51
2023/03/26 07:08:54;;;;;;;10.00;2.05;;;;;;;;;;5025880;28;20171;-48
2023/03/26 07:11:24;;;;;;;6.05;2.28;;;;;;;;;;5033567;28;20188;-43
2023/03/26 07:13:50;;;;;;;7.30;2.22;;;;;;;;;;5026868;28;20555;-48
2023/03/26 07:16:16;;;;;;;4.15;1.73;;;;;;;;;;5038807;28;20193;-45
2023/03/26 07:18:42;;;;;;;10.77;2.13;;;;;;;;;;5051518;28;20179;-50
2023/03/26 07:21:08;;;;;;;5.65;1.70;;;;;;;;;;5026968;28;20290;-51
2023/03/26 07:23:34;;;;;;;6.53;1.40;;;;;;;;;;5035915;28;20183;-44
2023/03/26 07:26:01;;;;;;;2.65;1.42;;;;;;;;;;5049834;28;20516;-45
2023/03/26 07:28:30;;;;;;;9.80;2.15;;;;;;;;;;5044499;28;20171;-50
2023/03/26 07:31:02;;;;;;;6.43;1.55;;;;;;;;;;5036453;28;20294;-46
2023/03/26 07:33:48;;;;;;;5.82;1.60;;;;;;;;;;5041539;28;20322;-52
2023/03/26 07:36:21;;;;;;;86.22;26.88;;;;;;;;;;5036839;28;20187;-52
2023/03/26 07:38:52;;;;;;;77.47;25.65;;;;;;;;;;5035542;28;20219;-52
2023/03/26 07:41:30;;;;;;;58.53;17.17;;;;;;;;;;5044296;28;20636;-52
2023/03/26 07:44:19;;;;;;;32.95;11.50;;;;;;;;;;5038070;28;20191;-52
2023/03/26 07:46:46;;;;;;;26.50;9.40;;;;;;;;;;5034363;28;20449;-53
2023/03/26 07:49:13;;;;;;;23.50;7.80;;;;;;;;;;5033539;28;20239;-52
2023/03/26 07:51:39;;;;;;;22.60;7.50;;;;;;;;;;5038438;28;20235;-53
2023/03/26 07:54:05;;;;;;;25.00;7.18;;;;;;;;;;5052700;28;20275;-52
2023/03/26 07:56:34;;;;;;;18.35;5.88;;;;;;;;;;5039504;28;20447;-52
2023/03/26 07:59:05;;;;;;;14.25;5.75;;;;;;;;;;5037703;28;20220;-52
2023/03/26 08:01:50;;;;;;;22.52;5.00;;;;;;;;;;5040893;28;20200;-52
2023/03/26 08:04:34;;;;;;;13.45;5.15;;;;;;;;;;5027913;28;20179;-52
2023/03/26 08:07:07;;;;;;;12.23;4.55;;;;;;;;;;5040272;28;20262;-52
2023/03/26 08:09:52;;;;;;;15.13;5.15;;;;;;;;;;5043811;28;20175;-53
2023/03/26 08:12:29;;;;;;;11.68;4.53;;;;;;;;;;5033348;28;20219;-53
2023/03/26 08:15:11;;;;;;;11.93;4.35;;;;;;;;;;5032057;28;20203;-53
2023/03/26 08:17:46;;;;;;;12.57;4.75;;;;;;;;;;5045403;28;20167;-53
2023/03/26 08:20:42;;;;;;;16.15;4.47;;;;;;;;;;5036567;28;20244;-53
2023/03/26 08:23:22;;;;;;;13.18;4.45;;;;;;;;;;5043516;28;20388;-53
2023/03/26 08:26:01;;;;;;;12.43;3.85;;;;;;;;;;5045048;28;20314;-53
2023/03/26 08:28:32;;;;;;;10.20;3.90;;;;;;;;;;5043030;28;20205;-53
2023/03/26 08:31:01;;;;;;;11.13;4.00;;;;;;;;;;5037307;28;20236;-53
2023/03/26 08:33:27;;;;;;;12.38;3.65;;;;;;;;;;5044688;28;20567;-53
2023/03/26 08:35:54;;;;;;;9.63;4.13;;;;;;;;;;5044888;28;20183;-53
2023/03/26 08:38:20;;;;;;;11.18;3.70;;;;;;;;;;5055072;28;20175;-53
2023/03/26 08:41:05;;;;;;;8.88;3.83;;;;;;;;;;5037435;28;20298;-53
2023/03/26 08:43:31;;;;;;;10.23;3.88;;;;;;;;;;5030307;28;20190;-53
2023/03/26 08:46:06;;;;;;;5.53;2.90;;;;;;;;;;5034487;28;20179;-53
2023/03/26 08:48:44;;;;;;;7.63;3.50;;;;;;;;;;5041983;28;20170;-53
2023/03/26 08:51:36;;;;;;;5.93;2.88;;;;;;;;;;5042114;28;20532;-53
2023/03/26 08:54:21;;;;;;;7.93;3.00;;;;;;;;;;5044713;28;20439;-53
2023/03/26 08:56:53;;;;;;;8.20;3.33;;;;;;;;;;5038335;28;20196;-52
2023/03/26 08:59:44;;;;;;;11.07;3.45;;;;;;;;;;5045303;28;20443;-52
2023/03/26 09:02:35;;;;;;;5.97;3.35;;;;;;;;;;5037707;28;20200;-53
2023/03/26 09:05:16;;;;;;;7.38;3.03;;;;;;;;;;5042762;28;20230;-53
2023/03/26 09:07:48;;;;;;;7.15;3.10;;;;;;;;;;5047864;28;20174;-53
2023/03/26 09:10:40;;;;;;;6.03;2.35;;;;;;;;;;5034364;28;20187;-52
2023/03/26 09:13:25;;;;;;;9.48;3.03;;;;;;;;;;5043632;28;20188;-52
2023/03/26 09:16:10;;;;;;;6.75;2.90;;;;;;;;;;5052322;28;20220;-52
2023/03/26 09:18:54;;;;;;;5.05;2.53;;;;;;;;;;5031251;28;20203;-52
2023/03/26 09:21:29;;;;;;;6.10;2.60;;;;;;;;;;5055326;28;20494;-52
2023/03/26 09:24:14;;;;;;;5.57;3.10;;;;;;;;;;5027240;28;20200;-53
2023/03/26 09:26:40;;;;;;;7.70;2.70;;;;;;;;;;5043102;28;20199;-52
2023/03/26 09:29:20;;;;;;;6.50;2.50;;;;;;;;;;5042051;28;20215;-53
2023/03/26 09:32:01;;;;;;;6.35;2.60;;;;;;;;;;5039602;28;20211;-53
2023/03/26 09:34:29;;;;;;;5.68;2.75;;;;;;;;;;5034121;28;20229;-52
2023/03/26 09:37:17;;;;;;;6.43;2.80;;;;;;;;;;5032900;28;20191;-53
2023/03/26 09:39:52;;;;;;;5.85;2.42;;;;;;;;;;5029423;28;20263;-53
2023/03/26 09:42:37;;;;;;;6.57;2.60;;;;;;;;;;5037012;28;20183;-52
2023/03/26 09:45:15;;;;;;;5.15;2.42;;;;;;;;;;5035459;28;20167;-53
2023/03/26 09:48:00;;;;;;;8.00;2.40;;;;;;;;;;5039356;28;20186;-52
2023/03/26 09:50:41;;;;;;;4.40;2.38;;;;;;;;;;5031627;28;20438;-52
2023/03/26 09:53:10;;;;;;;3.83;2.13;;;;;;;;;;5044101;28;20193;-52
2023/03/26 09:55:55;;;;;;;4.15;2.00;;;;;;;;;;5030487;28;20263;-52
2023/03/26 09:58:28;;;;;;;5.25;2.35;;;;;;;;;;5034817;28;20179;-52
2023/03/26 10:01:04;;;;;;;7.60;2.97;;;;;;;;;;5020340;28;20212;-53
2023/03/26 10:03:37;;;;;;;11.63;3.28;;;;;;;;;;5031370;28;20576;-52
2023/03/26 10:06:27;;;;;;;5.95;3.42;;;;;;;;;;5043056;28;20191;-52
2023/03/26 10:09:11;;;;;;;6.75;3.33;;;;;;;;;;5037432;28;20196;-53
2023/03/26 10:11:45;;;;;;;6.47;3.03;;;;;;;;;;5033090;28;20931;-53
2023/03/26 10:14:29;;;;;;;6.93;3.15;;;;;;;;;;5044297;28;20241;-53
2023/03/26 10:17:03;;;;;;;5.10;2.83;;;;;;;;;;5023134;28;20473;-53
2023/03/26 10:19:32;;;;;;;7.25;3.22;;;;;;;;;;5040684;28;20436;-53
2023/03/26 10:22:11;;;;;;;6.10;3.35;;;;;;;;;;5036646;28;20775;-53
2023/03/26 10:24:51;;;;;;;8.88;3.38;;;;;;;;;;5027731;28;20186;-53
2023/03/26 10:27:32;;;;;;;7.95;3.63;;;;;;;;;;5042733;28;20495;-53
2023/03/26 10:29:58;;;;;;;7.30;2.97;;;;;;;;;;5036851;28;20196;-53
2023/03/26 10:32:36;;;;;;;6.45;2.90;;;;;;;;;;5041895;28;20593;-53
2023/03/26 10:35:19;;;;;;;5.28;3.10;;;;;;;;;;5030140;28;20490;-53
2023/03/26 10:38:01;;;;;;;5.97;3.45;;;;;;;;;;5035373;28;20239;-53
2023/03/26 10:40:30;;;;;;;6.18;3.08;;;;;;;;;;5031144;28;20195;-53
2023/03/26 10:43:14;;;;;;;5.28;3.00;;;;;;;;;;5040184;28;20176;-53
2023/03/26 10:45:48;;;;;;;8.05;3.63;;;;;;;;;;5031447;28;20566;-53
2023/03/26 10:48:22;;;;;;;4.95;3.30;;;;;;;;;;5031968;28;20247;-53
2023/03/26 10:50:51;;;;;;;4.97;3.08;;;;;;;;;;5032345;28;20183;-53
2023/03/26 10:53:25;;;;;;;5.22;3.40;;;;;;;;;;5050314;28;20232;-53
2023/03/26 10:55:59;;;;;;;8.50;3.65;;;;;;;;;;5039534;28;20190;-52
2023/03/26 10:58:26;;;;;;;5.63;2.85;;;;;;;;;;5028608;28;20263;-53
2023/03/26 11:01:00;;;;;;;4.63;3.10;;;;;;;;;;5033053;28;20502;-53
2023/03/26 11:03:26;;;;;;;10.07;4.65;;;;;;;;;;5042991;28;20182;-48
2023/03/26 11:05:52;;;;;;;14.07;6.13;;;;;;;;;;5047205;28;20206;-48
2023/03/26 11:08:22;;;;;;;17.48;6.90;;;;;;;;;;5049066;28;20210;-48
2023/03/26 11:10:52;;;;;;;15.95;7.32;;;;;;;;;;5045802;28;20214;-48
2023/03/26 11:13:32;;;;;;;11.95;6.20;;;;;;;;;;5045731;28;20198;-48
2023/03/26 11:16:09;;;;;;;17.20;6.45;;;;;;;;;;5046303;28;20187;-48
2023/03/26 11:18:38;;;;;;;16.55;7.07;;;;;;;;;;5035850;28;20208;-48
2023/03/26 11:21:08;;;;;;;13.32;5.72;;;;;;;;;;5037354;28;20521;-48
2023/03/26 11:23:41;;;;;;;20.48;6.78;;;;;;;;;;5043265;28;20200;-49
2023/03/26 11:26:15;;;;;;;12.63;5.53;;;;;;;;;;5043520;28;20188;-48
2023/03/26 11:28:46;;;;;;;11.27;5.32;;;;;;;;;;5041510;28;20230;-48
2023/03/26 11:31:27;;;;;;;14.95;5.07;;;;;;;;;;5035728;28;20223;-49
2023/03/26 11:34:02;;;;;;;17.05;5.10;;;;;;;;;;5042985;28;20192;-48
2023/03/26 11:36:34;;;;;;;14.93;5.28;;;;;;;;;;5032430;28;20204;-48
2023/03/26 11:39:03;;;;;;;13.07;4.95;;;;;;;;;;5043036;28;20579;-48
2023/03/26 11:41:30;;;;;;;11.93;5.00;;;;;;;;;;5034574;28;20512;-48
2023/03/26 11:43:58;;;;;;;19.98;5.85;;;;;;;;;;5042892;28;20235;-48
2023/03/26 11:46:25;;;;;;;9.75;5.07;;;;;;;;;;5026391;28;20229;-48
2023/03/26 11:48:58;;;;;;;11.07;4.80;;;;;;;;;;5037403;28;20183;-48
2023/03/26 11:51:27;;;;;;;11.18;4.50;;;;;;;;;;5041112;28;20267;-48
2023/03/26 11:53:53;;;;;;;12.40;4.68;;;;;;;;;;5038787;28;20651;-48
2023/03/26 11:56:25;;;;;;;9.82;4.28;;;;;;;;;;5036969;28;20204;-48
2023/03/26 11:58:55;;;;;;;11.48;4.60;;;;;;;;;;5041686;28;20184;-48
2023/03/26 12:01:29;;;;;;;11.75;4.85;;;;;;;;;;5041905;28;20207;-48
2023/03/26 12:03:56;;;;;;;10.32;4.28;;;;;;;;;;5045024;28;20172;-48
2023/03/26 12:06:27;;;;;;;10.80;4.13;;;;;;;;;;5037057;28;20199;-48
2023/03/26 12:08:53;;;;;;;10.00;4.05;;;;;;;;;;5044052;28;20177;-48
2023/03/26 12:11:23;;;;;;;7.57;4.00;;;;;;;;;;5050194;28;20242;-49
2023/03/26 12:13:55;;;;;;;9.57;3.78;;;;;;;;;;5046984;28;20183;-49
2023/03/26 12:16:21;;;;;;;9.32;4.00;;;;;;;;;;5053596;28;20183;-49
2023/03/26 12:18:57;;;;;;;13.27;4.03;;;;;;;;;;5041397;28;20248;-48
2023/03/26 12:21:23;;;;;;;8.88;4.18;;;;;;;;;;5028111;28;20242;-49
2023/03/26 12:24:04;;;;;;;10.73;3.33;;;;;;;;;;5029989;28;20180;-49
2023/03/26 12:26:32;;;;;;;11.52;3.90;;;;;;;;;;5043166;28;20199;-49
2023/03/26 12:29:04;;;;;;;8.07;3.60;;;;;;;;;;5032192;28;20188;-49
2023/03/26 12:31:41;;;;;;;9.05;3.78;;;;;;;;;;5036360;28;20179;-49
2023/03/26 12:34:13;;;;;;;8.93;3.83;;;;;;;;;;5027336;28;20191;-49
2023/03/26 12:36:40;;;;;;;7.85;3.47;;;;;;;;;;5029138;28;20216;-49
2023/03/26 12:39:24;;;;;;;7.20;3.55;;;;;;;;;;5031707;28;20192;-49
2023/03/26 12:41:55;;;;;;;9.30;3.42;;;;;;;;;;5023720;28;20219;-49
2023/03/26 12:44:25;;;;;;;10.60;3.95;;;;;;;;;;5042766;28;20173;-49
2023/03/26 12:46:52;;;;;;;8.68;3.30;;;;;;;;;;5050930;28;20258;-49
2023/03/26 12:49:19;;;;;;;9.65;3.60;;;;;;;;;;5033252;28;20186;-48
2023/03/26 12:51:56;;;;;;;7.57;3.38;;;;;;;;;;5035055;28;20179;-49
2023/03/26 12:54:25;;;;;;;6.20;3.28;;;;;;;;;;5040624;28;20188;-51
2023/03/26 12:56:51;;;;;;;22.38;3.42;;;;;;;;;;5041881;28;20249;-49
2023/03/26 12:59:29;;;;;;;9.43;3.67;;;;;;;;;;5034834;28;20179;-48
2023/03/26 13:02:13;;;;;;;20.52;3.35;;;;;;;;;;5033038;28;20856;-44
2023/03/26 13:04:42;;;;;;;7.35;3.25;;;;;;;;;;5033087;28;20193;-46
2023/03/26 13:07:08;;;;;;;8.93;3.35;;;;;;;;;;5037191;28;20200;-45
2023/03/26 13:09:40;;;;;;;7.55;2.67;;;;;;;;;;5035701;28;20199;-46
2023/03/26 13:12:06;;;;;;;6.28;3.00;;;;;;;;;;5048663;28;20175;-47
2023/03/26 13:14:37;;;;;;;7.30;2.95;;;;;;;;;;5032248;28;20206;-46
2023/03/26 13:17:15;;;;;;;6.63;2.13;;;;;;;;;;5042339;28;20554;-45
2023/03/26 13:19:51;;;;;;;6.03;2.70;;;;;;;;;;5038467;28;20227;-49
2023/03/26 13:22:23;;;;;;;5.60;2.40;;;;;;;;;;5039003;28;20195;-50
2023/03/26 13:24:56;;;;;;;4.82;2.65;;;;;;;;;;5035680;28;20192;-43
2023/03/26 13:27:26;;;;;;;9.52;2.10;;;;;;;;;;5037724;28;20180;-50
2023/03/26 13:29:57;;;;;;;8.35;2.50;;;;;;;;;;5032293;28;20551;-50
2023/03/26 13:32:37;;;;;;;4.07;2.40;;;;;;;;;;5030802;28;20234;-53
2023/03/26 13:35:12;;;;;;;4.35;2.17;;;;;;;;;;5032252;28;20184;-55
2023/03/26 13:37:48;;;;;;;3.88;2.15;;;;;;;;;;5029575;28;20642;-48
2023/03/26 13:40:26;;;;;;;10.45;2.55;;;;;;;;;;5035098;28;20856;-48
2023/03/26 13:43:06;;;;;;;8.73;2.03;;;;;;;;;;5028025;28;20176;-50
2023/03/26 13:45:46;;;;;;;7.90;2.42;;;;;;;;;;5039783;28;20236;-51
2023/03/26 13:48:15;;;;;;;7.45;2.50;;;;;;;;;;5033097;28;20283;-48
2023/03/26 13:50:44;;;;;;;3.53;1.98;;;;;;;;;;5038736;28;20206;-51
2023/03/26 13:53:13;;;;;;;8.82;2.35;;;;;;;;;;5036824;28;20245;-53
2023/03/26 13:55:41;;;;;;;7.25;2.33;;;;;;;;;;5024435;28;20200;-50
2023/03/26 13:58:10;;;;;;;7.53;2.00;;;;;;;;;;5048995;28;20282;-50
2023/03/26 14:00:47;;;;;;;5.13;2.08;;;;;;;;;;5026053;28;20195;-54
2023/03/26 14:03:29;;;;;;;6.07;2.17;;;;;;;;;;5045701;28;20589;-47
2023/03/26 14:05:56;;;;;;;6.25;2.00;;;;;;;;;;5037473;28;20183;-49
2023/03/26 14:08:27;;;;;;;7.07;2.28;;;;;;;;;;5036441;28;20214;-50
2023/03/26 14:10:58;;;;;;;6.75;1.98;;;;;;;;;;5042270;28;20176;-50
2023/03/26 14:13:29;;;;;;;3.28;2.15;;;;;;;;;;5046920;28;20183;-50
2023/03/26 14:15:57;;;;;;;4.35;1.98;;;;;;;;;;5034763;28;20179;-49
2023/03/26 14:18:23;;;;;;;3.50;1.63;;;;;;;;;;5042037;28;20210;-49
2023/03/26 14:20:59;;;;;;;2.95;1.77;;;;;;;;;;5030281;28;20238;-49
2023/03/26 14:23:33;;;;;;;4.63;1.90;;;;;;;;;;5039447;28;20273;-49
2023/03/26 14:26:18;;;;;;;3.17;1.90;;;;;;;;;;5035453;28;20798;-50
2023/03/26 14:29:03;;;;;;;6.90;2.05;;;;;;;;;;5035561;28;20548;-50
2023/03/26 14:31:47;;;;;;;3.38;1.67;;;;;;;;;;5035111;28;20211;-49
2023/03/26 14:34:22;;;;;;;5.65;2.08;;;;;;;;;;5033404;28;20314;-49
2023/03/26 14:37:05;;;;;;;6.05;1.92;;;;;;;;;;5047593;28;20527;-49
2023/03/26 14:39:39;;;;;;;3.88;1.65;;;;;;;;;;5035416;28;20207;-49
2023/03/26 14:42:21;;;;;;;6.78;1.98;;;;;;;;;;5040476;28;20221;-49
2023/03/26 14:44:53;;;;;;;3.22;1.80;;;;;;;;;;5040120;28;20185;-49
2023/03/26 14:47:23;;;;;;;3.50;1.58;;;;;;;;;;5037558;28;20254;-49
2023/03/26 14:50:03;;;;;;;5.45;1.90;;;;;;;;;;5034299;28;20191;-49
2023/03/26 14:52:38;;;;;;;3.55;1.63;;;;;;;;;;5046707;28;20195;-49
2023/03/26 14:55:12;;;;;;;7.65;2.05;;;;;;;;;;5035415;28;20187;-49
2023/03/26 14:57:51;;;;;;;2.72;1.55;;;;;;;;;;5048349;28;20258;-49
2023/03/26 15:00:19;;;;;;;3.25;1.77;;;;;;;;;;5046283;28;20211;-48
2023/03/26 15:03:06;;;;;;;3.58;1.67;;;;;;;;;;5042437;28;20180;-49